Terminal Aerodrome Forecast
Issued by NWS

Home | Current Version | Previous Version | Text Only | Print | Product List | Glossary Off
Versions: 1 2 3 4 5 6 7 8 9 10 11 12 13 14 15 16 17 18 19 20 21 22 23 24 25

927
FTUS43 KBIS 231952 AAA
TAFMOT
TAF AMD
KMOT 231952Z 2320/2418 36012KT P6SM BKN045
     FM240400 34005KT P6SM SCT040
     FM241000 32006KT 3SM BR SCT040
     FM241400 32005KT P6SM BKN035=

USA.gov is the U.S. government's official web portal to all federal, state and local government web resources and services.